CYXR

Details ICAO CYXR (YXR)
Name TIMISKAMING RGNL
Region Canada
Timezone America/Toronto (UTC-5.0)
Plans Departing 0
Arriving 0
Stats Elevation 798 ft / 243 m (AMSL)
Location 47.694986° -79.852565°
Runways 2
Magnetic Variation 11.326° W
Sunrise 2017-12-14 13:02:06 UTC / 2017-12-14 08:02:06 Local
Sunset 2017-12-14 21:29:05 UTC / 2017-12-14 16:29:05 Local
Advertisement - Login to hide

Runways

ID Width Length Bearing (true) Bearing (mag) Surface Threshold Offset Overrun Length
08 150 ft / 46 m 5,987 ft / 1,825 m 63.26° 74.59° Asphalt 0 ft / 0 m 0 ft / 0 m
16 150 ft / 46 m 2,946 ft / 898 m 149.37° 160.70° Gravel 0 ft / 0 m 0 ft / 0 m
26 150 ft / 46 m 5,987 ft / 1,825 m 243.27° 254.60° Asphalt 0 ft / 0 m 0 ft / 0 m
34 150 ft / 46 m 2,946 ft / 898 m 329.37° 340.70° Gravel 300 ft / 91 m 0 ft / 0 m

Map

Weather


0- 5 10 15 20 25 30 35+ Temperature / ° C

Clouds and Precipitation
Forecast for 2017-12-14 18:00 UTC. Updated 2 hours ago

Ground ~20,000 ft ~40,000 ft Winds

METAR

CYXR 141700Z AUTO 29011KT 9SM OVC020 M19/M23 A2980 RMK ICG INTMT SLP120

TAF

TAF CYXR 141238Z 1413/1501 29010KT P6SM FEW020 TEMPO 1413/1415 2SM -SN BKN020 FM141500 28012KT P6SM BKN020 TEMPO 1415/1501 SCT020 RMK FCST BASED ON AUTO OBS. NXT FCST BY 141800Z

Frequencies

Tower 122.00 MHz MF
Warning: Do not use this data for real-world aviation or navigation. No guarantee of current accuracy is given.